Address 0xb11ff3da68edf0630edb67fc2201787fff49b0ed 1

 
 
Txn Hash Method
Block
From
To
Value [Txn Fee]
0x72c7654498329c90a80e68e27511a8989f891f40bd57680c6798621746b74364Swap ETH For Exa...80688912021-06-06 19:27:05104 days 3 hrs ago0xb11ff3da68edf0630edb67fc2201787fff49b0edOUT PancakeSwap: Router v20.000782295587826 BNB0.002834025
0xc5bc770f8b3ef67d13621a5c0e62453495fd28789af4912b475e54505aa3a56bSwap Exact ETH F...80688052021-06-06 19:22:47104 days 3 hrs ago0xb11ff3da68edf0630edb67fc2201787fff49b0edOUT PancakeSwap: Router v20.0009 BNB0.00161938
0x389c58d1d69a3be4af6d544712ce1eacde58d48e66999bf6770570eac25ec11bSwap Exact ETH F...80679412021-06-06 18:39:35104 days 4 hrs ago0xb11ff3da68edf0630edb67fc2201787fff49b0edOUT PancakeSwap: Router v20.075593605 BNB0.00097034
0x40cca00e412f48a3984ce3c3d6d0ca755fb41c75c25283a8a158981ef2a20213Swap Exact ETH F...73074982021-05-10 23:29:03130 days 23 hrs ago0xb11ff3da68edf0630edb67fc2201787fff49b0edOUT PancakeSwap: Router v20.000009 BNB0.00132713
0x018e4434f614221f85f00e37d44fbddbcda95b9985d26abfc2a9d23d6a4494e4Swap Exact ETH F...73074702021-05-10 23:27:38130 days 23 hrs ago0xb11ff3da68edf0630edb67fc2201787fff49b0edOUT PancakeSwap: Router v20.001 BNB0.00203388
0xa4fc4b9475e0b64ebf52b417c5cfc8f83f8cdee5e921e85935094aa89762d5b7Swap Exact ETH F...73073922021-05-10 23:23:20130 days 23 hrs ago0xb11ff3da68edf0630edb67fc2201787fff49b0edOUT PancakeSwap: Router v20.00001111 BNB0.00159797
0x92b3cbf3e1fe78a012c56dd3ee850b81783e76afc90a29bbca6148c844c2ebfdSwap Exact ETH F...72254382021-05-07 22:16:44134 days 1 hr ago0xb11ff3da68edf0630edb67fc2201787fff49b0edOUT PancakeSwap: Router v20.015157584900403 BNB0.003427305
0xed713a47173407dc462d926d6af0be2e2dc4716bf8d20ed290b715d2d4da05b7Swap ETH For Exa...72006042021-05-07 1:11:21134 days 22 hrs ago0xb11ff3da68edf0630edb67fc2201787fff49b0edOUT PancakeSwap: Router v20.000130320698738 BNB0.0034672
0x3a0e59912ca31cd6b6e911bee42bd0b3050764d05e1bd7b7b510a8068d419407Swap ETH For Exa...72006002021-05-07 1:11:09134 days 22 hrs ago0xb11ff3da68edf0630edb67fc2201787fff49b0edOUT PancakeSwap: Router v20.000130320698738 BNB0.0034672
0xdda883513b6decf921450271dec8e15e328cc16529230a5b2ae2020fc9d03de6Swap ETH For Exa...71983372021-05-06 23:15:23135 days 3 mins ago0xb11ff3da68edf0630edb67fc2201787fff49b0edOUT PancakeSwap: Router v20.000111253529491 BNB0.00388135
0xe6b6b1d3b057eedb6d758dc50bf761a05218fe9163ed541e99a134532d7b8b4fSwap ETH For Exa...71983302021-05-06 23:15:02135 days 3 mins ago0xb11ff3da68edf0630edb67fc2201787fff49b0edOUT PancakeSwap: Router v20.001108326967333 BNB0.0034672
0x141263b6978ff04f7e05a2b1da037439666a02a317689be3be008e9675562e07Swap ETH For Exa...71983262021-05-06 23:14:50135 days 3 mins ago0xb11ff3da68edf0630edb67fc2201787fff49b0edOUT PancakeSwap: Router v20.001082876161271 BNB0.00015657
0x312e60a57078a155771573f43d35913d991dc1edfa92de53a52d63ded42e6184Swap ETH For Exa...71983232021-05-06 23:14:41135 days 3 mins ago0xb11ff3da68edf0630edb67fc2201787fff49b0edOUT PancakeSwap: Router v20.001143038543971 BNB0.003820875
0xad59d08521e7b99a007500af2aec3762fdec210e121052f291c8493531437779Swap ETH For Exa...71983162021-05-06 23:14:20135 days 4 mins ago0xb11ff3da68edf0630edb67fc2201787fff49b0edOUT PancakeSwap: Router v20.001151219501657 BNB0.00376051
0xfaefaae6fdbeefea534922ce508392854de51c26b0e12a0208ce01680dde9052Swap ETH For Exa...71983072021-05-06 23:13:53135 days 4 mins ago0xb11ff3da68edf0630edb67fc2201787fff49b0edOUT PancakeSwap: Router v20.001137906586905 BNB0.0035422
[ Download CSV Export 
Latest 11 internal transactions
Parent Txn Hash Block From To Value
0x72c7654498329c90a80e68e27511a8989f891f40bd57680c6798621746b7436480688912021-06-06 19:27:05104 days 3 hrs ago PancakeSwap: Router v20xb11ff3da68edf0630edb67fc2201787fff49b0ed0.000083817734622457 BNB
0x38122b8b21b87343b7f89b48f0695b0114a686234a503219b2162cf8fb601cb880679002021-06-06 18:37:32104 days 4 hrs ago BSC: Token Hub0xb11ff3da68edf0630edb67fc2201787fff49b0ed0.085 BNB
0x6c9c344b3c1a60b44c8c7c55bbf55ae135feaf8ffd647c69328e0e53148bbb3672006502021-05-07 1:13:39134 days 22 hrs ago BSC: Token Hub0xb11ff3da68edf0630edb67fc2201787fff49b0ed0.0220674 BNB
0xed713a47173407dc462d926d6af0be2e2dc4716bf8d20ed290b715d2d4da05b772006042021-05-07 1:11:21134 days 22 hrs ago PancakeSwap: Router v20xb11ff3da68edf0630edb67fc2201787fff49b0ed0.000013679581755823 BNB
0x3a0e59912ca31cd6b6e911bee42bd0b3050764d05e1bd7b7b510a8068d41940772006002021-05-07 1:11:09134 days 22 hrs ago PancakeSwap: Router v20xb11ff3da68edf0630edb67fc2201787fff49b0ed0.000014645990726059 BNB
0xdda883513b6decf921450271dec8e15e328cc16529230a5b2ae2020fc9d03de671983372021-05-06 23:15:23135 days 3 mins ago PancakeSwap: Router v20xb11ff3da68edf0630edb67fc2201787fff49b0ed0.000000692455490382 BNB
0xe6b6b1d3b057eedb6d758dc50bf761a05218fe9163ed541e99a134532d7b8b4f71983302021-05-06 23:15:02135 days 3 mins ago PancakeSwap: Router v20xb11ff3da68edf0630edb67fc2201787fff49b0ed0.000000567504743576 BNB
0x312e60a57078a155771573f43d35913d991dc1edfa92de53a52d63ded42e618471983232021-05-06 23:14:41135 days 3 mins ago PancakeSwap: Router v20xb11ff3da68edf0630edb67fc2201787fff49b0ed0.000019594516873207 BNB
0xad59d08521e7b99a007500af2aec3762fdec210e121052f291c849353143777971983162021-05-06 23:14:20135 days 4 mins ago PancakeSwap: Router v20xb11ff3da68edf0630edb67fc2201787fff49b0ed0.000008919342986184 BNB
0xfaefaae6fdbeefea534922ce508392854de51c26b0e12a0208ce01680dde905271983072021-05-06 23:13:53135 days 4 mins ago PancakeSwap: Router v20xb11ff3da68edf0630edb67fc2201787fff49b0ed0.000009377034665123 BNB
0x655f42eb88bab936cbb27659639093a8051f1f4728a6545f079900c9fd49744971981302021-05-06 23:05:02135 days 13 mins ago BSC: Token Hub0xb11ff3da68edf0630edb67fc2201787fff49b0ed0.0334982 BNB
[ Download CSV Export 
Loading

Contract Name:
0 BNB

Compiler Version
0

Optimization Enabled:
0 BNB

Other Settings:
-NA-
Block Transaction Gas Used Reward
Age Block Fee Address BC Fee Address Voting Power Jailed Incoming
Block Uncle Number Difficulty Gas Used Reward
Loading
Loading
Make sure to use the "Vote Down" button for any spammy posts, and the "Vote Up" for interesting conversations.